createdAt,value
2023-02-19T00:01:37.446Z,10.80
2023-02-19T00:03:39.642Z,10.70
2023-02-19T00:05:41.402Z,10.70
2023-02-19T00:07:43.409Z,10.70
2023-02-19T00:09:45.113Z,10.70
2023-02-19T00:11:47.841Z,10.70
2023-02-19T00:13:50.793Z,10.70
2023-02-19T00:15:52.565Z,10.60
2023-02-19T00:17:54.198Z,10.70
2023-02-19T00:19:55.866Z,10.70
2023-02-19T00:21:57.465Z,10.80
2023-02-19T00:24:00.402Z,10.80
2023-02-19T00:26:18.093Z,10.70
2023-02-19T00:28:20.673Z,10.70
2023-02-19T00:30:22.266Z,10.70
2023-02-19T00:32:23.968Z,10.70
2023-02-19T00:34:25.646Z,10.60
2023-02-19T00:36:27.931Z,10.60
2023-02-19T00:38:29.741Z,10.60
2023-02-19T00:40:31.464Z,10.60
2023-02-19T00:42:33.164Z,10.70
2023-02-19T00:44:34.879Z,10.70
2023-02-19T00:46:46.780Z,10.70
2023-02-19T00:48:48.768Z,10.70
2023-02-19T00:50:50.549Z,10.70
2023-02-19T00:52:52.193Z,10.80
2023-02-19T00:54:54.146Z,10.70
2023-02-19T00:56:55.731Z,10.70
2023-02-19T00:58:57.400Z,10.60
2023-02-19T01:00:58.997Z,10.60
2023-02-19T01:03:00.639Z,10.60
2023-02-19T01:05:02.389Z,10.60
2023-02-19T01:07:04.097Z,10.60
2023-02-19T01:09:07.051Z,10.60
2023-02-19T01:11:09.644Z,10.60
2023-02-19T01:13:11.589Z,10.60
2023-02-19T01:15:13.547Z,10.70
2023-02-19T01:17:15.197Z,10.70
2023-02-19T01:19:17.000Z,10.90
2023-02-19T01:21:20.055Z,11.10
2023-02-19T01:23:21.735Z,11.20
2023-02-19T01:25:23.712Z,11.30
2023-02-19T01:27:25.371Z,11.30
2023-02-19T01:29:27.015Z,11.40
2023-02-19T01:31:29.059Z,11.40
2023-02-19T01:33:31.162Z,11.50
2023-02-19T01:35:33.040Z,11.50
2023-02-19T01:37:34.763Z,11.50
2023-02-19T01:39:36.516Z,11.60
2023-02-19T01:41:39.860Z,11.60
2023-02-19T01:44:00.391Z,11.50
2023-02-19T01:46:02.095Z,11.50
2023-02-19T01:48:16.347Z,11.50
2023-02-19T01:50:18.058Z,11.50
2023-02-19T01:52:32.619Z,11.50
2023-02-19T01:54:36.370Z,11.50
2023-02-19T01:56:39.127Z,11.50
2023-02-19T01:58:41.133Z,11.50
2023-02-19T02:00:42.979Z,11.50
2023-02-19T02:02:49.407Z,11.40
2023-02-19T02:04:51.684Z,11.50
2023-02-19T02:06:54.890Z,11.50
2023-02-19T02:09:16.611Z,11.50
2023-02-19T02:11:18.634Z,11.50
2023-02-19T02:13:20.636Z,11.50
2023-02-19T02:15:24.424Z,11.50
2023-02-19T02:17:28.970Z,11.40
2023-02-19T02:19:30.691Z,11.40
2023-02-19T02:21:52.429Z,11.40
2023-02-19T02:24:02.985Z,11.50
2023-02-19T02:26:10.780Z,11.40
2023-02-19T02:28:31.177Z,11.40
2023-02-19T02:30:55.726Z,11.40
2023-02-19T02:33:12.299Z,11.40
2023-02-19T02:35:19.312Z,11.40
2023-02-19T02:37:21.424Z,11.40
2023-02-19T02:39:25.154Z,11.30
2023-02-19T02:41:27.001Z,11.30
2023-02-19T02:43:28.755Z,11.20
2023-02-19T02:45:38.051Z,11.20
2023-02-19T02:48:00.107Z,11.10
2023-02-19T02:50:07.792Z,11.10
2023-02-19T02:52:29.534Z,11.10
2023-02-19T02:54:51.938Z,11.20
2023-02-19T02:56:55.109Z,11.10
2023-02-19T02:58:57.878Z,11.10
2023-02-19T03:01:24.059Z,11.10
2023-02-19T03:03:27.555Z,11.10
2023-02-19T03:05:48.185Z,11.10
2023-02-19T03:07:52.952Z,11.10
2023-02-19T03:09:55.223Z,11.10
2023-02-19T03:12:16.923Z,11.10
2023-02-19T03:14:40.222Z,11.10
2023-02-19T03:17:02.269Z,11.10
2023-02-19T03:19:20.638Z,11.10
2023-02-19T03:21:23.422Z,11.10
2023-02-19T03:23:47.736Z,11.10
2023-02-19T03:26:04.733Z,11.10
2023-02-19T03:28:07.958Z,11.00
2023-02-19T03:30:12.002Z,11.00
2023-02-19T03:32:24.042Z,10.90
2023-02-19T03:34:28.651Z,10.80
2023-02-19T03:36:33.764Z,10.70
2023-02-19T03:38:42.419Z,10.70
2023-02-19T03:40:51.182Z,10.70
2023-02-19T03:42:59.839Z,10.60
2023-02-19T03:45:11.470Z,10.60
2023-02-19T03:47:19.202Z,10.60
2023-02-19T03:49:30.349Z,10.50
2023-02-19T03:51:37.999Z,10.50
2023-02-19T03:53:42.787Z,10.50
2023-02-19T03:55:54.462Z,10.50
2023-02-19T03:58:16.394Z,10.40
2023-02-19T04:00:19.850Z,10.30
2023-02-19T04:02:24.361Z,10.40
2023-02-19T04:04:34.059Z,10.30
2023-02-19T04:06:37.244Z,10.30
2023-02-19T04:08:40.762Z,10.20
2023-02-19T04:10:42.996Z,10.20
2023-02-19T04:12:47.527Z,10.30
2023-02-19T04:14:52.520Z,10.20
2023-02-19T04:16:57.249Z,10.20
2023-02-19T04:19:16.385Z,10.30
2023-02-19T04:21:20.414Z,10.30
2023-02-19T04:23:23.749Z,10.30
2023-02-19T04:25:26.456Z,10.40
2023-02-19T04:27:28.100Z,10.30
2023-02-19T04:29:29.669Z,10.30
2023-02-19T04:31:35.150Z,10.30
2023-02-19T04:33:37.140Z,10.30
2023-02-19T04:35:38.876Z,10.30
2023-02-19T04:37:40.500Z,10.30
2023-02-19T04:39:42.207Z,10.40
2023-02-19T04:41:43.852Z,10.30
2023-02-19T04:43:45.448Z,10.40
2023-02-19T04:45:47.192Z,10.30
2023-02-19T04:47:48.938Z,10.30
2023-02-19T04:49:50.562Z,10.40
2023-02-19T04:51:52.191Z,10.40
2023-02-19T04:53:55.795Z,10.40
2023-02-19T04:55:57.542Z,10.40
2023-02-19T04:58:00.260Z,10.40
2023-02-19T05:00:02.133Z,10.40
2023-02-19T05:02:03.783Z,10.30
2023-02-19T05:04:05.471Z,10.30
2023-02-19T05:06:08.847Z,10.30
2023-02-19T05:08:10.524Z,10.30
2023-02-19T05:10:12.146Z,10.30
2023-02-19T05:12:13.722Z,10.30
2023-02-19T05:14:15.383Z,10.30
2023-02-19T05:16:17.509Z,10.30
2023-02-19T05:18:19.089Z,10.30
2023-02-19T05:20:22.901Z,10.20
2023-02-19T05:22:24.833Z,10.30
2023-02-19T05:24:28.305Z,10.30
2023-02-19T05:26:31.213Z,10.30
2023-02-19T05:28:32.991Z,10.30
2023-02-19T05:30:35.482Z,10.30
2023-02-19T05:32:38.265Z,10.30
2023-02-19T05:34:39.981Z,10.30
2023-02-19T05:36:41.902Z,10.30
2023-02-19T05:38:43.618Z,10.20
2023-02-19T05:40:45.816Z,10.20
2023-02-19T05:42:47.420Z,10.30
2023-02-19T05:44:49.057Z,10.30
2023-02-19T05:46:50.726Z,10.30
2023-02-19T05:48:53.077Z,10.30
2023-02-19T05:50:54.723Z,10.30
2023-02-19T05:52:56.630Z,10.30
2023-02-19T05:54:58.257Z,10.20
2023-02-19T05:56:59.989Z,10.20
2023-02-19T05:59:03.934Z,10.30
2023-02-19T06:01:05.601Z,10.30
2023-02-19T06:03:07.631Z,10.30
2023-02-19T06:05:09.889Z,10.30
2023-02-19T06:07:11.572Z,10.30
2023-02-19T06:09:13.193Z,10.30
2023-02-19T06:11:14.795Z,10.30
2023-02-19T06:13:17.836Z,10.30
2023-02-19T06:15:19.609Z,10.30
2023-02-19T06:17:21.228Z,10.30
2023-02-19T06:19:22.887Z,10.20
2023-02-19T06:21:24.630Z,10.20
2023-02-19T06:23:27.687Z,10.00
2023-02-19T06:25:29.396Z,10.00
2023-02-19T06:27:31.114Z,9.90
2023-02-19T06:29:32.826Z,9.90
2023-02-19T06:31:34.589Z,9.80
2023-02-19T06:33:37.023Z,9.80
2023-02-19T06:35:38.735Z,9.70
2023-02-19T06:37:40.371Z,9.80
2023-02-19T06:40:01.684Z,9.80
2023-02-19T06:42:06.027Z,9.80
2023-02-19T06:44:55.465Z,9.70
2023-02-19T06:52:44.214Z,9.70
2023-02-19T06:55:11.308Z,9.70
2023-02-19T06:57:52.369Z,9.70
2023-02-19T06:59:54.213Z,9.80
2023-02-19T07:02:03.721Z,9.80
2023-02-19T07:04:16.420Z,9.80
2023-02-19T07:06:36.333Z,9.90
2023-02-19T07:08:40.478Z,10.00
2023-02-19T07:10:45.626Z,10.00
2023-02-19T07:12:55.275Z,10.00
2023-02-19T07:15:20.789Z,10.00
2023-02-19T07:17:26.243Z,10.10
2023-02-19T07:22:36.662Z,10.00
2023-02-19T07:24:51.734Z,10.00
2023-02-19T07:27:16.326Z,10.00
2023-02-19T07:29:21.988Z,9.90
2023-02-19T07:31:27.225Z,9.90
2023-02-19T07:33:30.700Z,10.00
2023-02-19T07:35:35.381Z,9.90
2023-02-19T07:38:07.440Z,9.90
2023-02-19T07:40:51.495Z,9.90
2023-02-19T07:42:55.611Z,9.90
2023-02-19T07:45:23.874Z,9.90
2023-02-19T07:47:46.739Z,9.90
2023-02-19T07:52:44.898Z,10.00
2023-02-19T07:54:51.073Z,10.10
2023-02-19T07:56:52.868Z,10.10
2023-02-19T07:59:30.086Z,10.10
2023-02-19T08:01:59.936Z,10.20
2023-02-19T08:04:15.896Z,10.30
2023-02-19T08:06:36.121Z,10.30
2023-02-19T08:08:40.825Z,10.30
2023-02-19T08:11:01.485Z,10.30
2023-02-19T08:13:25.818Z,10.30
2023-02-19T08:16:07.466Z,10.40
2023-02-19T08:18:19.670Z,10.40
2023-02-19T08:20:26.576Z,10.40
2023-02-19T08:22:35.958Z,10.40
2023-02-19T08:24:45.959Z,10.50
2023-02-19T08:26:53.884Z,10.50
2023-02-19T08:29:00.171Z,10.50
2023-02-19T08:31:05.574Z,10.50
2023-02-19T08:33:11.746Z,10.60
2023-02-19T08:35:14.346Z,10.60
2023-02-19T08:37:18.963Z,10.60
2023-02-19T08:39:21.209Z,10.60
2023-02-19T08:41:23.139Z,10.60
2023-02-19T08:43:25.035Z,10.60
2023-02-19T08:45:27.042Z,10.40
2023-02-19T08:47:37.825Z,10.40
2023-02-19T08:49:52.454Z,10.40
2023-02-19T08:51:58.227Z,10.40
2023-02-19T08:54:04.179Z,10.50
2023-02-19T08:56:27.546Z,10.50
2023-02-19T08:59:02.339Z,10.40
2023-02-19T09:06:22.116Z,10.50
2023-02-19T09:08:43.588Z,10.50
2023-02-19T09:10:57.583Z,10.50
2023-02-19T09:13:02.214Z,10.50
2023-02-19T09:15:06.044Z,10.40
2023-02-19T09:17:08.591Z,10.50
2023-02-19T09:19:15.170Z,10.50
2023-02-19T09:21:25.454Z,10.50
2023-02-19T09:23:31.973Z,10.50
2023-02-19T09:25:39.507Z,10.50
2023-02-19T09:28:10.742Z,10.40
2023-02-19T09:30:21.722Z,10.50
2023-02-19T09:32:37.231Z,10.60
2023-02-19T09:34:47.777Z,10.70
2023-02-19T09:37:28.817Z,10.70
2023-02-19T09:39:40.803Z,10.80
2023-02-19T09:42:05.389Z,10.70
2023-02-19T09:44:27.370Z,10.80
2023-02-19T09:46:58.526Z,10.80
2023-02-19T09:49:22.265Z,10.80
2023-02-19T09:51:31.409Z,10.90
2023-02-19T09:54:02.323Z,10.90
2023-02-19T09:56:04.601Z,11.00
2023-02-19T09:58:32.127Z,11.10
2023-02-19T10:06:06.113Z,11.10
2023-02-19T10:08:28.142Z,11.10
2023-02-19T10:13:16.670Z,11.20
2023-02-19T10:15:30.398Z,11.20
2023-02-19T10:17:34.752Z,11.40
2023-02-19T10:19:40.729Z,11.50
2023-02-19T10:21:42.802Z,11.60
2023-02-19T10:23:44.620Z,11.70
2023-02-19T10:26:03.154Z,11.70
2023-02-19T10:28:14.981Z,12.00
2023-02-19T10:30:28.513Z,11.90
2023-02-19T10:32:33.357Z,11.80
2023-02-19T10:34:41.061Z,11.80
2023-02-19T10:36:45.520Z,11.70
2023-02-19T10:38:47.936Z,11.60
2023-02-19T10:40:50.840Z,11.80
2023-02-19T10:43:02.380Z,11.70
2023-02-19T10:45:16.828Z,11.70
2023-02-19T10:47:21.829Z,11.70
2023-02-19T10:49:29.693Z,11.70
2023-02-19T10:51:39.152Z,11.80
2023-02-19T10:53:49.069Z,11.90
2023-02-19T10:56:07.456Z,11.80
2023-02-19T10:58:21.517Z,11.60
2023-02-19T11:00:30.160Z,11.70
2023-02-19T11:02:41.180Z,11.70
2023-02-19T11:05:02.845Z,11.80
2023-02-19T11:07:21.649Z,12.00
2023-02-19T11:12:00.559Z,11.90
2023-02-19T11:14:11.432Z,12.20
2023-02-19T11:16:35.305Z,12.50
2023-02-19T11:18:39.860Z,12.10
2023-02-19T11:20:47.508Z,12.30
2023-02-19T11:22:57.653Z,12.20
2023-02-19T11:25:03.908Z,12.30
2023-02-19T11:27:06.641Z,12.30
2023-02-19T11:29:17.106Z,12.20
2023-02-19T11:31:26.979Z,12.20
2023-02-19T11:33:28.755Z,12.00
2023-02-19T11:35:30.667Z,12.00
2023-02-19T11:37:32.901Z,12.10
2023-02-19T11:39:34.708Z,12.00
2023-02-19T11:41:36.632Z,11.90
2023-02-19T11:43:59.250Z,12.00
2023-02-19T11:46:12.636Z,11.90
2023-02-19T11:48:17.083Z,11.90
2023-02-19T11:50:37.947Z,11.90
2023-02-19T11:53:02.927Z,11.90
2023-02-19T11:55:34.772Z,11.80
2023-02-19T12:00:40.446Z,12.00
2023-02-19T12:02:57.622Z,12.00
2023-02-19T12:05:05.178Z,12.10
2023-02-19T12:07:36.150Z,12.10
2023-02-19T12:09:40.877Z,12.10
2023-02-19T12:12:10.543Z,12.00
2023-02-19T12:14:21.985Z,12.10
2023-02-19T12:16:23.920Z,12.00
2023-02-19T12:18:34.910Z,12.10
2023-02-19T12:20:56.162Z,11.70
2023-02-19T12:23:11.208Z,11.70
2023-02-19T12:25:19.347Z,11.70
2023-02-19T12:27:38.835Z,11.80
2023-02-19T12:29:43.518Z,11.80
2023-02-19T12:32:01.605Z,11.90
2023-02-19T12:34:17.489Z,12.00
2023-02-19T12:42:38.038Z,12.20
2023-02-19T12:44:42.385Z,12.10
2023-02-19T12:46:54.046Z,11.90
2023-02-19T12:49:02.607Z,11.80
2023-02-19T12:51:11.517Z,11.80
2023-02-19T12:53:16.311Z,11.90
2023-02-19T12:55:21.062Z,12.00
2023-02-19T12:57:22.905Z,12.00
2023-02-19T12:59:29.480Z,12.00
2023-02-19T13:01:41.545Z,11.90
2023-02-19T13:03:49.963Z,12.30
2023-02-19T13:06:12.040Z,12.40
2023-02-19T13:08:23.920Z,12.30
2023-02-19T13:10:46.501Z,12.30
2023-02-19T13:12:50.506Z,12.50
2023-02-19T13:14:56.817Z,12.50
2023-02-19T13:17:04.198Z,12.40
2023-02-19T13:19:05.823Z,12.20
2023-02-19T13:21:09.966Z,12.10
2023-02-19T13:23:34.667Z,11.90
2023-02-19T13:25:45.201Z,11.80
2023-02-19T13:27:56.266Z,11.80
2023-02-19T13:30:21.583Z,11.80
2023-02-19T13:32:35.622Z,11.70
2023-02-19T13:35:02.387Z,11.80
2023-02-19T13:37:04.252Z,11.60
2023-02-19T13:39:06.601Z,11.70
2023-02-19T13:41:17.780Z,11.60
2023-02-19T13:43:23.520Z,11.60
2023-02-19T13:45:36.900Z,11.70
2023-02-19T13:47:49.657Z,11.80
2023-02-19T13:49:52.163Z,11.70
2023-02-19T13:51:55.101Z,11.60
2023-02-19T13:53:56.668Z,11.70
2023-02-19T13:55:58.278Z,11.70
2023-02-19T13:58:29.209Z,11.60
2023-02-19T14:00:49.510Z,11.60
2023-02-19T14:03:11.360Z,11.70
2023-02-19T14:05:13.026Z,11.70
2023-02-19T14:07:14.618Z,11.70
2023-02-19T14:09:35.423Z,11.60
2023-02-19T14:11:42.891Z,11.50
2023-02-19T14:13:50.809Z,11.50
2023-02-19T14:15:52.618Z,11.50
2023-02-19T14:17:55.210Z,11.60
2023-02-19T14:20:01.072Z,11.50
2023-02-19T14:22:19.402Z,11.50
2023-02-19T14:24:21.845Z,11.60
2023-02-19T14:26:24.886Z,11.60
2023-02-19T14:28:37.008Z,11.60
2023-02-19T14:30:50.315Z,11.50
2023-02-19T14:33:02.857Z,11.50
2023-02-19T14:35:18.467Z,11.50
2023-02-19T14:37:22.223Z,11.50
2023-02-19T14:39:25.317Z,11.50
2023-02-19T14:41:28.741Z,11.50
2023-02-19T14:43:31.147Z,11.50
2023-02-19T14:45:41.965Z,11.50
2023-02-19T14:47:43.897Z,11.50
2023-02-19T14:49:52.407Z,11.50
2023-02-19T14:51:59.238Z,11.50
2023-02-19T14:54:03.991Z,11.50
2023-02-19T14:56:06.885Z,11.50
2023-02-19T14:58:13.865Z,11.50
2023-02-19T15:00:21.818Z,11.50
2023-02-19T15:02:25.902Z,11.50
2023-02-19T15:04:36.658Z,11.40
2023-02-19T15:06:39.652Z,11.40
2023-02-19T15:08:46.548Z,11.40
2023-02-19T15:10:49.067Z,11.40
2023-02-19T15:12:52.194Z,11.40
2023-02-19T15:14:55.626Z,11.40
2023-02-19T15:16:59.375Z,11.30
2023-02-19T15:19:01.479Z,11.30
2023-02-19T15:21:04.081Z,11.30
2023-02-19T15:23:06.510Z,11.30
2023-02-19T15:25:12.161Z,11.30
2023-02-19T15:27:18.919Z,11.30
2023-02-19T15:29:22.098Z,11.30
2023-02-19T15:31:23.693Z,11.30
2023-02-19T15:33:29.245Z,11.30
2023-02-19T15:35:32.562Z,11.30
2023-02-19T15:37:35.898Z,11.30
2023-02-19T15:39:46.309Z,11.30
2023-02-19T15:41:53.143Z,11.20
2023-02-19T15:43:58.976Z,11.20
2023-02-19T15:46:06.448Z,11.20
2023-02-19T15:48:11.013Z,11.20
2023-02-19T15:50:15.845Z,11.20
2023-02-19T15:52:23.532Z,11.20
2023-02-19T15:54:27.248Z,11.10
2023-02-19T15:56:31.440Z,11.10
2023-02-19T15:58:33.033Z,11.10
2023-02-19T16:00:48.693Z,11.10
2023-02-19T16:02:50.536Z,11.10
2023-02-19T16:04:52.256Z,11.00
2023-02-19T16:06:58.012Z,11.00
2023-02-19T16:09:04.571Z,11.00
2023-02-19T16:11:26.297Z,11.00
2023-02-19T16:13:29.172Z,10.90
2023-02-19T16:15:31.824Z,11.00
2023-02-19T16:17:33.998Z,10.90
2023-02-19T16:19:41.348Z,10.90
2023-02-19T16:21:43.389Z,10.90
2023-02-19T16:23:45.901Z,10.90
2023-02-19T16:25:48.216Z,10.90
2023-02-19T16:27:49.850Z,10.90
2023-02-19T16:29:51.825Z,10.90
2023-02-19T16:32:04.737Z,10.90
2023-02-19T16:34:16.629Z,10.90
2023-02-19T16:36:22.678Z,10.90
2023-02-19T16:38:24.483Z,10.80
2023-02-19T16:40:35.337Z,10.80
2023-02-19T16:42:55.193Z,10.80
2023-02-19T16:44:56.755Z,10.80
2023-02-19T16:47:02.197Z,10.80
2023-02-19T16:49:03.805Z,10.80
2023-02-19T16:51:06.450Z,10.70
2023-02-19T16:53:15.263Z,10.70
2023-02-19T16:55:16.907Z,10.70
2023-02-19T16:57:18.616Z,10.70
2023-02-19T16:59:20.190Z,10.70
2023-02-19T17:01:21.881Z,10.60
2023-02-19T17:03:33.687Z,10.50
2023-02-19T17:05:35.885Z,10.50
2023-02-19T17:07:37.435Z,10.50
2023-02-19T17:09:39.033Z,10.50
2023-02-19T17:11:40.635Z,10.50
2023-02-19T17:13:42.893Z,10.50
2023-02-19T17:15:44.467Z,10.50
2023-02-19T17:17:46.298Z,10.50
2023-02-19T17:19:48.339Z,10.50
2023-02-19T17:21:49.926Z,10.40
2023-02-19T17:23:52.034Z,10.40
2023-02-19T17:25:53.868Z,10.40
2023-02-19T17:27:55.371Z,10.40
2023-02-19T17:29:56.975Z,10.40
2023-02-19T17:31:58.620Z,10.40
2023-02-19T17:34:00.263Z,10.30
2023-02-19T17:36:01.899Z,10.20
2023-02-19T17:38:09.369Z,10.20
2023-02-19T17:40:33.542Z,10.20
2023-02-19T17:42:35.513Z,10.20
2023-02-19T17:44:37.127Z,10.20
2023-02-19T17:46:39.166Z,10.10
2023-02-19T17:48:40.752Z,10.10
2023-02-19T17:50:42.340Z,10.10
2023-02-19T17:52:44.076Z,10.10
2023-02-19T17:54:45.669Z,10.10
2023-02-19T17:56:47.591Z,10.10
2023-02-19T17:58:49.152Z,10.10
2023-02-19T18:00:50.816Z,10.10
2023-02-19T18:02:52.437Z,10.10
2023-02-19T18:04:54.073Z,10.00
2023-02-19T18:06:55.876Z,10.00
2023-02-19T18:08:57.470Z,10.10
2023-02-19T18:10:59.344Z,10.10
2023-02-19T18:13:01.012Z,10.10
2023-02-19T18:15:02.633Z,10.10
2023-02-19T18:17:04.302Z,10.10
2023-02-19T18:19:07.257Z,10.10
2023-02-19T18:21:09.792Z,10.00
2023-02-19T18:23:11.488Z,10.00
2023-02-19T18:25:13.120Z,10.00
2023-02-19T18:27:15.478Z,10.00
2023-02-19T18:29:19.874Z,10.10
2023-02-19T18:31:21.564Z,10.10
2023-02-19T18:33:23.290Z,10.10
2023-02-19T18:35:24.872Z,10.00
2023-02-19T18:37:27.079Z,10.00
2023-02-19T18:39:28.705Z,10.00
2023-02-19T18:41:30.299Z,10.00
2023-02-19T18:43:31.891Z,10.00
2023-02-19T18:45:37.094Z,9.90
2023-02-19T18:47:38.649Z,10.00
2023-02-19T18:49:40.310Z,10.00
2023-02-19T18:51:43.340Z,9.90
2023-02-19T18:53:44.940Z,9.90
2023-02-19T18:55:46.534Z,9.90
2023-02-19T18:57:48.245Z,9.90
2023-02-19T18:59:50.100Z,9.90
2023-02-19T19:01:51.676Z,9.90
2023-02-19T19:03:53.266Z,9.90
2023-02-19T19:05:55.178Z,9.90
2023-02-19T19:07:58.973Z,9.90
2023-02-19T19:10:00.634Z,9.90
2023-02-19T19:12:02.728Z,9.90
2023-02-19T19:14:04.483Z,9.90
2023-02-19T19:16:06.302Z,9.80
2023-02-19T19:18:08.450Z,9.90
2023-02-19T19:20:10.402Z,9.80
2023-02-19T19:22:11.985Z,9.80
2023-02-19T19:24:13.575Z,9.80
2023-02-19T19:26:15.514Z,9.90
2023-02-19T19:28:17.162Z,9.90
2023-02-19T19:30:20.108Z,9.90
2023-02-19T19:32:21.935Z,9.90
2023-02-19T19:34:23.582Z,9.90
2023-02-19T19:36:25.288Z,9.90
2023-02-19T19:38:26.951Z,9.90
2023-02-19T19:40:28.802Z,9.80
2023-02-19T19:42:30.355Z,9.90
2023-02-19T19:44:34.318Z,9.90
2023-02-19T19:46:42.240Z,9.80
2023-02-19T19:48:44.911Z,9.80
2023-02-19T19:50:46.845Z,9.80
2023-02-19T19:52:48.749Z,9.90
2023-02-19T19:54:54.087Z,9.80
2023-02-19T19:56:55.773Z,9.80
2023-02-19T19:58:57.798Z,9.80
2023-02-19T20:01:01.799Z,9.80
2023-02-19T20:03:03.819Z,9.80
2023-02-19T20:05:06.040Z,9.80
2023-02-19T20:07:08.917Z,9.80
2023-02-19T20:09:10.549Z,9.70
2023-02-19T20:11:12.492Z,9.70
2023-02-19T20:13:18.016Z,9.60
2023-02-19T20:15:20.833Z,9.60
2023-02-19T20:17:27.170Z,9.60
2023-02-19T20:19:28.736Z,9.60
2023-02-19T20:21:30.413Z,9.60
2023-02-19T20:23:32.975Z,9.60
2023-02-19T20:25:35.654Z,9.60
2023-02-19T20:27:37.547Z,9.60
2023-02-19T20:29:39.216Z,9.60
2023-02-19T20:31:47.340Z,9.60
2023-02-19T20:33:51.477Z,9.60
2023-02-19T20:35:53.247Z,9.60
2023-02-19T20:37:55.585Z,9.60
2023-02-19T20:39:57.508Z,9.60
2023-02-19T20:42:03.535Z,9.60
2023-02-19T20:44:05.686Z,9.60
2023-02-19T20:46:07.740Z,9.60
2023-02-19T20:48:09.394Z,9.60
2023-02-19T20:50:11.342Z,9.60
2023-02-19T20:52:15.470Z,9.50
2023-02-19T20:54:17.960Z,9.50
2023-02-19T20:56:19.544Z,9.50
2023-02-19T20:58:21.218Z,9.60
2023-02-19T21:00:23.102Z,9.60
2023-02-19T21:02:29.078Z,9.60
2023-02-19T21:04:30.839Z,9.60
2023-02-19T21:06:32.449Z,9.60
2023-02-19T21:08:34.145Z,9.60
2023-02-19T21:10:35.800Z,9.60
2023-02-19T21:12:37.475Z,9.60
2023-02-19T21:14:39.403Z,9.60
2023-02-19T21:16:41.184Z,9.60
2023-02-19T21:18:42.759Z,9.60
2023-02-19T21:20:44.430Z,9.70
2023-02-19T21:22:46.053Z,9.80
2023-02-19T21:24:51.893Z,9.90
2023-02-19T21:26:53.439Z,9.90
2023-02-19T21:28:55.133Z,9.80
2023-02-19T21:30:57.053Z,9.80
2023-02-19T21:32:58.890Z,9.80
2023-02-19T21:35:01.026Z,9.70
2023-02-19T21:37:02.717Z,9.60
2023-02-19T21:39:06.094Z,9.60
2023-02-19T21:41:08.138Z,9.60
2023-02-19T21:43:10.011Z,9.60
2023-02-19T21:45:12.435Z,9.50
2023-02-19T21:47:14.541Z,9.50
2023-02-19T21:49:16.706Z,9.50
2023-02-19T21:51:19.036Z,9.60
2023-02-19T21:53:20.802Z,9.60
2023-02-19T21:55:22.569Z,9.60
2023-02-19T21:57:24.344Z,9.50
2023-02-19T21:59:25.955Z,9.50
2023-02-19T22:01:39.029Z,9.50
2023-02-19T22:03:40.768Z,9.50
2023-02-19T22:05:42.552Z,9.40
2023-02-19T22:07:44.164Z,9.50
2023-02-19T22:09:45.823Z,9.40
2023-02-19T22:11:47.459Z,9.40
2023-02-19T22:13:49.116Z,9.40
2023-02-19T22:15:50.855Z,9.50
2023-02-19T22:17:52.434Z,9.40
2023-02-19T22:19:54.165Z,9.30
2023-02-19T22:21:55.995Z,9.30
2023-02-19T22:23:58.336Z,9.30
2023-02-19T22:25:59.978Z,9.30
2023-02-19T22:28:03.432Z,9.30
2023-02-19T22:30:05.526Z,9.30
2023-02-19T22:32:07.594Z,9.30
2023-02-19T22:34:09.666Z,9.30
2023-02-19T22:36:40.293Z,9.30
2023-02-19T22:38:42.137Z,9.30
2023-02-19T22:40:43.724Z,9.30
2023-02-19T22:42:45.452Z,9.30
2023-02-19T22:44:47.187Z,9.30
2023-02-19T22:46:50.506Z,9.30
2023-02-19T22:48:52.149Z,9.30
2023-02-19T22:50:54.972Z,9.30
2023-02-19T22:52:57.796Z,9.30
2023-02-19T22:55:00.016Z,9.30
2023-02-19T22:57:01.660Z,9.30
2023-02-19T22:59:03.348Z,9.30
2023-02-19T23:01:05.089Z,9.30
2023-02-19T23:03:06.703Z,9.30
2023-02-19T23:05:08.367Z,9.30
2023-02-19T23:07:10.630Z,9.30
2023-02-19T23:09:22.286Z,9.30
2023-02-19T23:11:25.194Z,9.30
2023-02-19T23:13:26.920Z,9.30
2023-02-19T23:15:28.544Z,9.30
2023-02-19T23:17:30.262Z,9.30
2023-02-19T23:19:32.478Z,9.30
2023-02-19T23:21:34.592Z,9.30
2023-02-19T23:23:36.557Z,9.30
2023-02-19T23:25:39.266Z,9.30
2023-02-19T23:27:41.934Z,9.30
2023-02-19T23:29:43.764Z,9.30
2023-02-19T23:31:45.823Z,9.30
2023-02-19T23:33:47.671Z,9.30
2023-02-19T23:35:49.220Z,9.30
2023-02-19T23:37:50.826Z,9.30
2023-02-19T23:39:52.590Z,9.10
2023-02-19T23:41:55.422Z,9.20
2023-02-19T23:43:57.023Z,9.10
2023-02-19T23:45:58.697Z,9.10
2023-02-19T23:48:00.298Z,9.10
2023-02-19T23:50:01.924Z,9.00
2023-02-19T23:52:03.571Z,9.00
2023-02-19T23:54:05.272Z,8.90
2023-02-19T23:56:06.991Z,8.90
2023-02-19T23:58:08.668Z,8.90
